sensor_id;sensor_type;location;lat;lon;timestamp;pressure;altitude;pressure_sealevel;temperature;humidity
24336;BME280;75016;52.400;16.880;2024-02-28T00:02:13;100836.23;;;9.42;100.00
24336;BME280;75016;52.400;16.880;2024-02-28T00:04:40;100835.83;;;9.38;100.00
24336;BME280;75016;52.400;16.880;2024-02-28T00:07:07;100836.59;;;9.37;100.00
24336;BME280;75016;52.400;16.880;2024-02-28T00:09:33;100841.23;;;9.39;100.00
24336;BME280;75016;52.400;16.880;2024-02-28T00:12:00;100838.98;;;9.38;100.00
24336;BME280;75016;52.400;16.880;2024-02-28T00:14:26;100840.52;;;9.36;100.00
24336;BME280;75016;52.400;16.880;2024-02-28T00:16:53;100838.90;;;9.31;100.00
24336;BME280;75016;52.400;16.880;2024-02-28T00:19:19;100838.37;;;9.26;100.00
24336;BME280;75016;52.400;16.880;2024-02-28T00:21:46;100837.60;;;9.27;100.00
24336;BME280;75016;52.400;16.880;2024-02-28T00:24:13;100841.23;;;9.39;100.00
24336;BME280;75016;52.400;16.880;2024-02-28T00:26:41;100842.78;;;9.45;100.00
24336;BME280;75016;52.400;16.880;2024-02-28T00:29:09;100847.29;;;9.41;100.00
24336;BME280;75016;52.400;16.880;2024-02-28T00:31:36;100847.41;;;9.36;100.00
24336;BME280;75016;52.400;16.880;2024-02-28T00:34:02;100848.60;;;9.34;100.00
24336;BME280;75016;52.400;16.880;2024-02-28T00:36:29;100846.52;;;9.28;100.00
24336;BME280;75016;52.400;16.880;2024-02-28T00:38:55;100849.61;;;9.35;100.00
24336;BME280;75016;52.400;16.880;2024-02-28T00:41:22;100850.91;;;9.45;100.00
24336;BME280;75016;52.400;16.880;2024-02-28T00:43:48;100851.56;;;9.48;100.00
24336;BME280;75016;52.400;16.880;2024-02-28T00:46:15;100846.84;;;9.58;100.00
24336;BME280;75016;52.400;16.880;2024-02-28T00:48:41;100848.34;;;9.70;100.00
24336;BME280;75016;52.400;16.880;2024-02-28T00:51:08;100845.90;;;9.82;100.00
24336;BME280;75016;52.400;16.880;2024-02-28T00:53:35;100847.42;;;9.83;100.00
24336;BME280;75016;52.400;16.880;2024-02-28T00:56:01;100845.91;;;9.90;100.00
24336;BME280;75016;52.400;16.880;2024-02-28T00:58:28;100846.39;;;9.93;100.00
24336;BME280;75016;52.400;16.880;2024-02-28T01:00:56;100843.74;;;9.85;100.00
24336;BME280;75016;52.400;16.880;2024-02-28T01:03:23;100841.34;;;9.81;100.00
24336;BME280;75016;52.400;16.880;2024-02-28T01:05:50;100841.73;;;9.76;100.00
24336;BME280;75016;52.400;16.880;2024-02-28T01:08:17;100843.44;;;9.72;100.00
24336;BME280;75016;52.400;16.880;2024-02-28T01:10:44;100847.71;;;9.66;100.00
24336;BME280;75016;52.400;16.880;2024-02-28T01:13:11;100847.38;;;9.63;100.00
24336;BME280;75016;52.400;16.880;2024-02-28T01:15:41;100846.23;;;9.56;100.00
24336;BME280;75016;52.400;16.880;2024-02-28T01:18:10;100845.83;;;9.52;100.00
24336;BME280;75016;52.400;16.880;2024-02-28T01:20:37;100842.36;;;9.45;100.00
24336;BME280;75016;52.400;16.880;2024-02-28T01:23:03;100835.48;;;9.47;100.00
24336;BME280;75016;52.400;16.880;2024-02-28T01:25:30;100832.38;;;9.47;100.00
24336;BME280;75016;52.400;16.880;2024-02-28T01:27:57;100831.27;;;9.44;100.00
24336;BME280;75016;52.400;16.880;2024-02-28T01:30:26;100832.55;;;9.46;100.00
24336;BME280;75016;52.400;16.880;2024-02-28T01:32:52;100833.63;;;9.49;100.00
24336;BME280;75016;52.400;16.880;2024-02-28T01:35:19;100830.30;;;9.56;100.00
24336;BME280;75016;52.400;16.880;2024-02-28T01:37:46;100823.02;;;9.69;100.00
24336;BME280;75016;52.400;16.880;2024-02-28T01:40:13;100824.44;;;9.70;100.00
24336;BME280;75016;52.400;16.880;2024-02-28T01:42:39;100825.30;;;9.59;100.00
24336;BME280;75016;52.400;16.880;2024-02-28T01:45:06;100823.61;;;9.53;100.00
24336;BME280;75016;52.400;16.880;2024-02-28T01:47:35;100815.98;;;9.51;100.00
24336;BME280;75016;52.400;16.880;2024-02-28T01:50:02;100816.46;;;9.46;100.00
24336;BME280;75016;52.400;16.880;2024-02-28T01:52:29;100815.66;;;9.40;100.00
24336;BME280;75016;52.400;16.880;2024-02-28T01:54:56;100812.88;;;9.36;100.00
24336;BME280;75016;52.400;16.880;2024-02-28T01:57:23;100820.12;;;9.36;100.00
24336;BME280;75016;52.400;16.880;2024-02-28T01:59:51;100817.92;;;9.40;100.00
24336;BME280;75016;52.400;16.880;2024-02-28T02:02:18;100817.14;;;9.39;100.00
24336;BME280;75016;52.400;16.880;2024-02-28T02:04:45;100818.95;;;9.35;100.00
24336;BME280;75016;52.400;16.880;2024-02-28T02:11:25;100817.45;;;9.21;100.00
24336;BME280;75016;52.400;16.880;2024-02-28T02:13:53;100817.40;;;9.19;100.00
24336;BME280;75016;52.400;16.880;2024-02-28T02:16:20;100813.66;;;9.16;100.00
24336;BME280;75016;52.400;16.880;2024-02-28T02:18:52;100811.69;;;9.12;100.00
24336;BME280;75016;52.400;16.880;2024-02-28T02:21:20;100814.55;;;9.11;100.00
24336;BME280;75016;52.400;16.880;2024-02-28T02:23:48;100813.52;;;9.11;100.00
24336;BME280;75016;52.400;16.880;2024-02-28T02:26:15;100813.21;;;9.12;100.00
24336;BME280;75016;52.400;16.880;2024-02-28T02:28:42;100814.85;;;9.14;100.00
24336;BME280;75016;52.400;16.880;2024-02-28T02:31:10;100815.05;;;9.22;100.00
24336;BME280;75016;52.400;16.880;2024-02-28T02:33:36;100818.20;;;9.28;100.00
24336;BME280;75016;52.400;16.880;2024-02-28T02:36:03;100814.36;;;9.35;100.00
24336;BME280;75016;52.400;16.880;2024-02-28T02:38:30;100812.52;;;9.47;100.00
24336;BME280;75016;52.400;16.880;2024-02-28T02:40:56;100811.94;;;9.63;100.00
24336;BME280;75016;52.400;16.880;2024-02-28T02:43:23;100813.81;;;9.75;100.00
24336;BME280;75016;52.400;16.880;2024-02-28T02:45:49;100816.05;;;9.81;100.00
24336;BME280;75016;52.400;16.880;2024-02-28T02:48:16;100819.11;;;9.85;100.00
24336;BME280;75016;52.400;16.880;2024-02-28T02:50:42;100821.20;;;9.93;100.00
24336;BME280;75016;52.400;16.880;2024-02-28T02:53:10;100825.44;;;9.96;100.00
24336;BME280;75016;52.400;16.880;2024-02-28T02:55:37;100825.23;;;10.04;100.00
24336;BME280;75016;52.400;16.880;2024-02-28T02:58:03;100827.42;;;10.08;100.00
24336;BME280;75016;52.400;16.880;2024-02-28T03:00:30;100825.46;;;10.08;100.00
24336;BME280;75016;52.400;16.880;2024-02-28T03:02:56;100821.66;;;10.05;100.00
24336;BME280;75016;52.400;16.880;2024-02-28T03:05:23;100818.83;;;9.99;100.00
24336;BME280;75016;52.400;16.880;2024-02-28T03:07:49;100817.29;;;9.88;100.00
24336;BME280;75016;52.400;16.880;2024-02-28T03:10:16;100816.17;;;9.86;100.00
24336;BME280;75016;52.400;16.880;2024-02-28T03:12:43;100814.39;;;9.92;100.00
24336;BME280;75016;52.400;16.880;2024-02-28T03:15:09;100818.30;;;9.99;100.00
24336;BME280;75016;52.400;16.880;2024-02-28T03:17:36;100827.15;;;9.94;100.00
24336;BME280;75016;52.400;16.880;2024-02-28T03:20:02;100825.54;;;9.79;100.00
24336;BME280;75016;52.400;16.880;2024-02-28T03:22:29;100828.79;;;9.73;100.00
24336;BME280;75016;52.400;16.880;2024-02-28T03:24:56;100829.94;;;9.74;100.00
24336;BME280;75016;52.400;16.880;2024-02-28T03:27:22;100833.84;;;9.80;100.00
24336;BME280;75016;52.400;16.880;2024-02-28T03:29:49;100828.41;;;9.74;100.00
24336;BME280;75016;52.400;16.880;2024-02-28T03:32:15;100828.33;;;9.67;100.00
24336;BME280;75016;52.400;16.880;2024-02-28T03:34:42;100830.45;;;9.70;100.00
24336;BME280;75016;52.400;16.880;2024-02-28T03:37:09;100824.83;;;9.82;100.00
24336;BME280;75016;52.400;16.880;2024-02-28T03:39:35;100830.58;;;9.93;100.00
24336;BME280;75016;52.400;16.880;2024-02-28T03:42:02;100829.05;;;10.00;100.00
24336;BME280;75016;52.400;16.880;2024-02-28T03:44:28;100834.98;;;10.04;100.00
24336;BME280;75016;52.400;16.880;2024-02-28T03:46:55;100830.73;;;10.09;100.00
24336;BME280;75016;52.400;16.880;2024-02-28T03:49:21;100831.89;;;10.11;100.00
24336;BME280;75016;52.400;16.880;2024-02-28T03:51:48;100833.09;;;10.16;100.00
24336;BME280;75016;52.400;16.880;2024-02-28T03:54:14;100833.17;;;10.15;100.00
24336;BME280;75016;52.400;16.880;2024-02-28T03:56:41;100831.89;;;10.13;100.00
24336;BME280;75016;52.400;16.880;2024-02-28T03:59:08;100835.55;;;10.11;100.00
24336;BME280;75016;52.400;16.880;2024-02-28T04:01:35;100837.53;;;10.13;100.00
24336;BME280;75016;52.400;16.880;2024-02-28T04:04:01;100835.16;;;10.14;100.00
24336;BME280;75016;52.400;16.880;2024-02-28T04:06:28;100836.00;;;10.15;100.00
24336;BME280;75016;52.400;16.880;2024-02-28T04:08:55;100839.81;;;10.16;100.00
24336;BME280;75016;52.400;16.880;2024-02-28T04:11:21;100843.41;;;10.13;100.00
24336;BME280;75016;52.400;16.880;2024-02-28T04:13:48;100840.16;;;10.09;100.00
24336;BME280;75016;52.400;16.880;2024-02-28T04:16:14;100841.94;;;10.04;100.00
24336;BME280;75016;52.400;16.880;2024-02-28T04:18:41;100839.38;;;9.99;100.00
24336;BME280;75016;52.400;16.880;2024-02-28T04:21:07;100839.64;;;9.98;100.00
24336;BME280;75016;52.400;16.880;2024-02-28T04:23:34;100841.74;;;10.02;100.00
24336;BME280;75016;52.400;16.880;2024-02-28T04:26:01;100844.91;;;10.04;100.00
24336;BME280;75016;52.400;16.880;2024-02-28T04:28:28;100849.77;;;10.03;100.00
24336;BME280;75016;52.400;16.880;2024-02-28T04:30:55;100846.02;;;9.86;100.00
24336;BME280;75016;52.400;16.880;2024-02-28T04:33:22;100844.56;;;9.79;100.00
24336;BME280;75016;52.400;16.880;2024-02-28T04:35:49;100841.77;;;9.83;100.00
24336;BME280;75016;52.400;16.880;2024-02-28T04:38:15;100849.73;;;9.91;100.00
24336;BME280;75016;52.400;16.880;2024-02-28T04:40:42;100850.88;;;9.95;100.00
24336;BME280;75016;52.400;16.880;2024-02-28T04:43:08;100855.09;;;9.95;100.00
24336;BME280;75016;52.400;16.880;2024-02-28T04:45:35;100857.39;;;9.95;100.00
24336;BME280;75016;52.400;16.880;2024-02-28T04:48:02;100856.59;;;9.96;100.00
24336;BME280;75016;52.400;16.880;2024-02-28T04:50:28;100854.80;;;9.97;100.00
24336;BME280;75016;52.400;16.880;2024-02-28T04:52:55;100853.84;;;10.01;100.00
24336;BME280;75016;52.400;16.880;2024-02-28T04:55:22;100855.89;;;9.96;100.00
24336;BME280;75016;52.400;16.880;2024-02-28T04:57:48;100856.36;;;9.90;100.00
24336;BME280;75016;52.400;16.880;2024-02-28T05:00:15;100855.03;;;9.91;100.00
24336;BME280;75016;52.400;16.880;2024-02-28T05:02:41;100852.36;;;9.91;100.00
24336;BME280;75016;52.400;16.880;2024-02-28T05:05:08;100850.36;;;9.84;100.00
24336;BME280;75016;52.400;16.880;2024-02-28T05:07:34;100861.01;;;9.77;100.00
24336;BME280;75016;52.400;16.880;2024-02-28T05:10:01;100860.87;;;9.65;100.00
24336;BME280;75016;52.400;16.880;2024-02-28T05:12:28;100863.38;;;9.57;100.00
24336;BME280;75016;52.400;16.880;2024-02-28T05:14:54;100867.50;;;9.51;100.00
24336;BME280;75016;52.400;16.880;2024-02-28T05:17:21;100864.95;;;9.42;100.00
24336;BME280;75016;52.400;16.880;2024-02-28T05:19:47;100867.39;;;9.40;100.00
24336;BME280;75016;52.400;16.880;2024-02-28T05:22:14;100873.66;;;9.44;100.00
24336;BME280;75016;52.400;16.880;2024-02-28T05:24:41;100878.84;;;9.48;100.00
24336;BME280;75016;52.400;16.880;2024-02-28T05:27:09;100876.43;;;9.55;100.00
24336;BME280;75016;52.400;16.880;2024-02-28T05:29:36;100882.66;;;9.55;100.00
24336;BME280;75016;52.400;16.880;2024-02-28T05:32:03;100885.10;;;9.53;100.00
24336;BME280;75016;52.400;16.880;2024-02-28T05:34:30;100891.20;;;9.41;100.00
24336;BME280;75016;52.400;16.880;2024-02-28T05:36:56;100894.08;;;9.41;100.00
24336;BME280;75016;52.400;16.880;2024-02-28T05:39:23;100901.15;;;9.43;100.00
24336;BME280;75016;52.400;16.880;2024-02-28T05:41:49;100902.33;;;9.47;100.00
24336;BME280;75016;52.400;16.880;2024-02-28T05:44:16;100912.37;;;9.45;100.00
24336;BME280;75016;52.400;16.880;2024-02-28T05:46:42;100916.43;;;9.40;100.00
24336;BME280;75016;52.400;16.880;2024-02-28T05:49:09;100916.37;;;9.30;100.00
24336;BME280;75016;52.400;16.880;2024-02-28T05:51:35;100921.02;;;9.24;100.00
24336;BME280;75016;52.400;16.880;2024-02-28T05:54:02;100924.42;;;9.18;100.00
24336;BME280;75016;52.400;16.880;2024-02-28T05:56:29;100925.59;;;9.16;100.00
24336;BME280;75016;52.400;16.880;2024-02-28T05:58:56;100930.58;;;9.15;100.00
24336;BME280;75016;52.400;16.880;2024-02-28T06:01:23;100931.05;;;9.17;100.00
24336;BME280;75016;52.400;16.880;2024-02-28T06:03:49;100931.95;;;9.27;100.00
24336;BME280;75016;52.400;16.880;2024-02-28T06:06:17;100935.25;;;9.34;100.00
24336;BME280;75016;52.400;16.880;2024-02-28T06:08:44;100935.45;;;9.37;100.00
24336;BME280;75016;52.400;16.880;2024-02-28T06:11:10;100937.98;;;9.32;100.00
24336;BME280;75016;52.400;16.880;2024-02-28T06:13:39;100942.17;;;9.31;100.00
24336;BME280;75016;52.400;16.880;2024-02-28T06:16:06;100945.64;;;9.32;100.00
24336;BME280;75016;52.400;16.880;2024-02-28T06:18:33;100946.38;;;9.31;100.00
24336;BME280;75016;52.400;16.880;2024-02-28T06:21:00;100944.24;;;9.26;100.00
24336;BME280;75016;52.400;16.880;2024-02-28T06:23:27;100944.50;;;9.25;100.00
24336;BME280;75016;52.400;16.880;2024-02-28T06:25:53;100946.38;;;9.18;100.00
24336;BME280;75016;52.400;16.880;2024-02-28T06:28:20;100949.71;;;9.08;100.00
24336;BME280;75016;52.400;16.880;2024-02-28T06:30:47;100950.48;;;9.07;100.00
24336;BME280;75016;52.400;16.880;2024-02-28T06:33:14;100951.86;;;9.07;100.00
24336;BME280;75016;52.400;16.880;2024-02-28T06:35:40;100954.05;;;9.06;100.00
24336;BME280;75016;52.400;16.880;2024-02-28T06:38:07;100954.98;;;9.05;100.00
24336;BME280;75016;52.400;16.880;2024-02-28T06:40:34;100954.09;;;9.05;100.00
24336;BME280;75016;52.400;16.880;2024-02-28T06:43:01;100955.64;;;9.03;100.00
24336;BME280;75016;52.400;16.880;2024-02-28T06:45:28;100958.79;;;9.01;100.00
24336;BME280;75016;52.400;16.880;2024-02-28T06:47:54;100956.05;;;9.05;100.00
24336;BME280;75016;52.400;16.880;2024-02-28T06:50:21;100956.92;;;9.08;100.00
24336;BME280;75016;52.400;16.880;2024-02-28T06:52:47;100956.92;;;9.13;100.00
24336;BME280;75016;52.400;16.880;2024-02-28T06:55:14;100961.70;;;9.19;100.00
24336;BME280;75016;52.400;16.880;2024-02-28T06:57:41;100970.36;;;9.17;100.00
24336;BME280;75016;52.400;16.880;2024-02-28T07:00:09;100971.91;;;9.06;100.00
24336;BME280;75016;52.400;16.880;2024-02-28T07:02:38;100974.94;;;8.97;100.00
24336;BME280;75016;52.400;16.880;2024-02-28T07:05:04;100981.19;;;8.88;100.00
24336;BME280;75016;52.400;16.880;2024-02-28T07:07:33;100981.91;;;8.80;100.00
24336;BME280;75016;52.400;16.880;2024-02-28T07:10:03;100982.60;;;8.69;100.00
24336;BME280;75016;52.400;16.880;2024-02-28T07:12:30;100984.55;;;8.74;100.00
24336;BME280;75016;52.400;16.880;2024-02-28T07:14:57;100985.48;;;8.76;100.00
24336;BME280;75016;52.400;16.880;2024-02-28T07:17:23;100983.70;;;8.68;100.00
24336;BME280;75016;52.400;16.880;2024-02-28T07:19:50;100984.95;;;8.67;100.00
24336;BME280;75016;52.400;16.880;2024-02-28T07:22:17;100987.88;;;8.75;100.00
24336;BME280;75016;52.400;16.880;2024-02-28T07:24:44;100989.40;;;8.82;100.00
24336;BME280;75016;52.400;16.880;2024-02-28T07:27:10;100993.89;;;8.91;100.00
24336;BME280;75016;52.400;16.880;2024-02-28T07:29:37;101000.09;;;9.00;100.00
24336;BME280;75016;52.400;16.880;2024-02-28T07:32:04;101003.92;;;9.04;100.00
24336;BME280;75016;52.400;16.880;2024-02-28T07:34:31;101005.90;;;9.09;100.00
24336;BME280;75016;52.400;16.880;2024-02-28T07:36:58;101014.27;;;9.17;100.00
24336;BME280;75016;52.400;16.880;2024-02-28T07:39:24;101016.53;;;9.26;100.00
24336;BME280;75016;52.400;16.880;2024-02-28T07:41:51;101017.89;;;9.27;100.00
24336;BME280;75016;52.400;16.880;2024-02-28T07:44:18;101013.77;;;9.33;100.00
24336;BME280;75016;52.400;16.880;2024-02-28T07:46:44;101014.82;;;9.42;100.00
24336;BME280;75016;52.400;16.880;2024-02-28T07:49:11;101017.38;;;9.43;100.00
24336;BME280;75016;52.400;16.880;2024-02-28T07:51:38;101014.54;;;9.35;100.00
24336;BME280;75016;52.400;16.880;2024-02-28T07:54:06;101016.68;;;9.37;100.00
24336;BME280;75016;52.400;16.880;2024-02-28T07:56:33;101021.26;;;9.35;100.00
24336;BME280;75016;52.400;16.880;2024-02-28T07:58:59;101025.56;;;9.31;100.00
24336;BME280;75016;52.400;16.880;2024-02-28T08:01:26;101026.81;;;9.23;100.00
24336;BME280;75016;52.400;16.880;2024-02-28T08:03:53;101025.20;;;9.06;100.00
24336;BME280;75016;52.400;16.880;2024-02-28T08:06:20;101022.04;;;9.06;100.00
24336;BME280;75016;52.400;16.880;2024-02-28T08:08:47;101018.88;;;9.14;100.00
24336;BME280;75016;52.400;16.880;2024-02-28T08:11:13;101021.77;;;9.21;100.00
24336;BME280;75016;52.400;16.880;2024-02-28T08:13:40;101019.08;;;9.25;100.00
24336;BME280;75016;52.400;16.880;2024-02-28T08:16:06;101022.30;;;9.27;100.00
24336;BME280;75016;52.400;16.880;2024-02-28T08:18:35;101021.44;;;9.29;100.00
24336;BME280;75016;52.400;16.880;2024-02-28T08:21:02;101020.13;;;9.36;100.00
24336;BME280;75016;52.400;16.880;2024-02-28T08:23:32;101024.88;;;9.45;100.00
24336;BME280;75016;52.400;16.880;2024-02-28T08:25:58;101023.24;;;9.48;100.00
24336;BME280;75016;52.400;16.880;2024-02-28T08:28:25;101021.73;;;9.50;100.00
24336;BME280;75016;52.400;16.880;2024-02-28T08:30:51;101023.84;;;9.53;100.00
24336;BME280;75016;52.400;16.880;2024-02-28T08:33:18;101027.10;;;9.57;100.00
24336;BME280;75016;52.400;16.880;2024-02-28T08:35:45;101028.64;;;9.55;100.00
24336;BME280;75016;52.400;16.880;2024-02-28T08:38:11;101035.80;;;9.37;100.00
24336;BME280;75016;52.400;16.880;2024-02-28T08:40:38;101035.07;;;9.38;100.00
24336;BME280;75016;52.400;16.880;2024-02-28T08:43:05;101040.70;;;9.47;100.00
24336;BME280;75016;52.400;16.880;2024-02-28T08:45:31;101044.98;;;9.55;100.00
24336;BME280;75016;52.400;16.880;2024-02-28T08:47:58;101046.94;;;9.54;100.00
24336;BME280;75016;52.400;16.880;2024-02-28T08:50:28;101051.55;;;9.41;100.00
24336;BME280;75016;52.400;16.880;2024-02-28T08:52:55;101051.45;;;9.17;100.00
24336;BME280;75016;52.400;16.880;2024-02-28T08:55:21;101053.05;;;8.94;100.00
24336;BME280;75016;52.400;16.880;2024-02-28T08:57:48;101051.36;;;8.70;100.00
24336;BME280;75016;52.400;16.880;2024-02-28T09:00:15;101046.33;;;8.68;100.00
24336;BME280;75016;52.400;16.880;2024-02-28T09:02:42;101047.48;;;8.60;100.00
24336;BME280;75016;52.400;16.880;2024-02-28T09:05:08;101047.61;;;8.56;100.00
24336;BME280;75016;52.400;16.880;2024-02-28T09:07:35;101047.64;;;8.49;100.00
24336;BME280;75016;52.400;16.880;2024-02-28T09:10:06;101045.16;;;8.55;100.00
24336;BME280;75016;52.400;16.880;2024-02-28T09:12:33;101049.58;;;8.58;100.00
24336;BME280;75016;52.400;16.880;2024-02-28T09:14:59;101050.46;;;8.70;100.00
24336;BME280;75016;52.400;16.880;2024-02-28T09:17:26;101052.37;;;8.74;100.00
24336;BME280;75016;52.400;16.880;2024-02-28T09:19:53;101058.95;;;8.82;100.00
24336;BME280;75016;52.400;16.880;2024-02-28T09:22:20;101060.27;;;8.80;100.00
24336;BME280;75016;52.400;16.880;2024-02-28T09:24:47;101065.32;;;8.70;100.00
24336;BME280;75016;52.400;16.880;2024-02-28T09:27:15;101066.57;;;8.73;100.00
24336;BME280;75016;52.400;16.880;2024-02-28T09:29:41;101073.27;;;8.79;100.00
24336;BME280;75016;52.400;16.880;2024-02-28T09:32:08;101072.80;;;8.90;100.00
24336;BME280;75016;52.400;16.880;2024-02-28T09:34:37;101074.27;;;8.91;100.00
24336;BME280;75016;52.400;16.880;2024-02-28T09:37:03;101075.19;;;8.91;100.00
24336;BME280;75016;52.400;16.880;2024-02-28T09:39:30;101072.88;;;8.83;100.00
24336;BME280;75016;52.400;16.880;2024-02-28T09:41:57;101074.04;;;8.72;100.00
24336;BME280;75016;52.400;16.880;2024-02-28T09:44:25;101072.48;;;8.75;100.00
24336;BME280;75016;52.400;16.880;2024-02-28T09:46:52;101077.99;;;8.65;100.00
24336;BME280;75016;52.400;16.880;2024-02-28T09:49:19;101081.84;;;8.63;100.00
24336;BME280;75016;52.400;16.880;2024-02-28T09:51:48;101086.10;;;8.62;100.00
24336;BME280;75016;52.400;16.880;2024-02-28T09:54:18;101094.80;;;8.68;100.00
24336;BME280;75016;52.400;16.880;2024-02-28T09:56:47;101097.04;;;8.69;100.00
24336;BME280;75016;52.400;16.880;2024-02-28T09:59:15;101100.66;;;8.77;100.00
24336;BME280;75016;52.400;16.880;2024-02-28T10:01:43;101099.45;;;8.82;100.00
24336;BME280;75016;52.400;16.880;2024-02-28T10:04:13;101103.77;;;8.72;100.00
24336;BME280;75016;52.400;16.880;2024-02-28T10:06:40;101109.64;;;8.62;100.00
24336;BME280;75016;52.400;16.880;2024-02-28T10:09:07;101114.36;;;8.66;100.00
24336;BME280;75016;52.400;16.880;2024-02-28T10:11:34;101109.47;;;8.68;100.00
24336;BME280;75016;52.400;16.880;2024-02-28T10:14:01;101108.71;;;8.75;100.00
24336;BME280;75016;52.400;16.880;2024-02-28T10:16:29;101112.53;;;8.85;100.00
24336;BME280;75016;52.400;16.880;2024-02-28T10:18:55;101117.64;;;8.77;100.00
24336;BME280;75016;52.400;16.880;2024-02-28T10:21:22;101123.38;;;8.70;100.00
24336;BME280;75016;52.400;16.880;2024-02-28T10:23:50;101117.70;;;8.82;100.00
24336;BME280;75016;52.400;16.880;2024-02-28T10:26:17;101118.52;;;8.89;100.00
24336;BME280;75016;52.400;16.880;2024-02-28T10:28:43;101122.53;;;8.81;100.00
24336;BME280;75016;52.400;16.880;2024-02-28T10:31:11;101131.11;;;8.67;100.00
24336;BME280;75016;52.400;16.880;2024-02-28T10:33:38;101131.27;;;8.65;100.00
24336;BME280;75016;52.400;16.880;2024-02-28T10:36:05;101129.01;;;8.73;100.00
24336;BME280;75016;52.400;16.880;2024-02-28T10:38:32;101130.35;;;8.81;100.00
24336;BME280;75016;52.400;16.880;2024-02-28T10:41:05;101134.75;;;8.84;100.00
24336;BME280;75016;52.400;16.880;2024-02-28T10:43:32;101141.55;;;8.80;100.00
24336;BME280;75016;52.400;16.880;2024-02-28T10:46:00;101150.62;;;8.64;100.00
24336;BME280;75016;52.400;16.880;2024-02-28T10:48:27;101148.16;;;8.66;100.00
24336;BME280;75016;52.400;16.880;2024-02-28T10:50:54;101148.59;;;8.74;100.00
24336;BME280;75016;52.400;16.880;2024-02-28T10:53:22;101152.80;;;8.75;100.00
24336;BME280;75016;52.400;16.880;2024-02-28T10:55:58;101159.86;;;8.84;100.00
24336;BME280;75016;52.400;16.880;2024-02-28T10:58:34;101157.09;;;8.83;100.00
24336;BME280;75016;52.400;16.880;2024-02-28T11:01:02;101155.05;;;8.85;100.00
24336;BME280;75016;52.400;16.880;2024-02-28T11:03:29;101153.59;;;8.88;100.00
24336;BME280;75016;52.400;16.880;2024-02-28T11:05:56;101150.26;;;8.97;100.00
24336;BME280;75016;52.400;16.880;2024-02-28T11:08:24;101150.02;;;9.04;100.00
24336;BME280;75016;52.400;16.880;2024-02-28T11:10:58;101149.45;;;9.10;100.00
24336;BME280;75016;52.400;16.880;2024-02-28T11:13:27;101148.11;;;9.12;100.00
24336;BME280;75016;52.400;16.880;2024-02-28T11:15:54;101149.67;;;9.10;100.00
24336;BME280;75016;52.400;16.880;2024-02-28T11:18:23;101152.08;;;9.08;100.00
24336;BME280;75016;52.400;16.880;2024-02-28T11:20:50;101151.89;;;9.11;100.00
24336;BME280;75016;52.400;16.880;2024-02-28T11:23:17;101156.92;;;9.18;100.00
24336;BME280;75016;52.400;16.880;2024-02-28T11:25:44;101159.94;;;9.27;100.00
24336;BME280;75016;52.400;16.880;2024-02-28T11:28:11;101158.98;;;9.16;100.00
24336;BME280;75016;52.400;16.880;2024-02-28T11:30:37;101159.15;;;9.13;100.00
24336;BME280;75016;52.400;16.880;2024-02-28T11:33:04;101160.59;;;9.19;100.00
24336;BME280;75016;52.400;16.880;2024-02-28T11:35:31;101162.52;;;9.20;100.00
24336;BME280;75016;52.400;16.880;2024-02-28T11:37:58;101163.80;;;9.19;100.00
24336;BME280;75016;52.400;16.880;2024-02-28T11:40:25;101168.51;;;9.20;100.00
24336;BME280;75016;52.400;16.880;2024-02-28T11:42:55;101172.27;;;9.22;100.00
24336;BME280;75016;52.400;16.880;2024-02-28T11:45:22;101175.09;;;9.11;100.00
24336;BME280;75016;52.400;16.880;2024-02-28T11:47:49;101175.21;;;9.00;100.00
24336;BME280;75016;52.400;16.880;2024-02-28T11:50:15;101179.27;;;8.94;100.00
24336;BME280;75016;52.400;16.880;2024-02-28T11:52:45;101182.09;;;8.76;100.00
24336;BME280;75016;52.400;16.880;2024-02-28T11:55:11;101181.85;;;8.47;100.00
24336;BME280;75016;52.400;16.880;2024-02-28T11:57:38;101182.46;;;8.29;100.00
24336;BME280;75016;52.400;16.880;2024-02-28T12:00:07;101188.81;;;8.30;100.00
24336;BME280;75016;52.400;16.880;2024-02-28T12:02:34;101186.09;;;8.34;100.00
24336;BME280;75016;52.400;16.880;2024-02-28T12:05:02;101189.09;;;8.50;100.00
24336;BME280;75016;52.400;16.880;2024-02-28T12:07:31;101190.42;;;8.61;100.00
24336;BME280;75016;52.400;16.880;2024-02-28T12:09:59;101188.00;;;8.63;100.00
24336;BME280;75016;52.400;16.880;2024-02-28T12:12:29;101187.81;;;8.54;100.00
24336;BME280;75016;52.400;16.880;2024-02-28T12:14:59;101191.42;;;8.53;100.00
24336;BME280;75016;52.400;16.880;2024-02-28T12:17:31;101194.99;;;8.61;100.00
24336;BME280;75016;52.400;16.880;2024-02-28T12:20:01;101195.21;;;8.66;100.00
24336;BME280;75016;52.400;16.880;2024-02-28T12:22:28;101192.42;;;8.75;100.00
24336;BME280;75016;52.400;16.880;2024-02-28T12:24:55;101194.50;;;8.79;100.00
24336;BME280;75016;52.400;16.880;2024-02-28T12:27:21;101197.40;;;8.62;100.00
24336;BME280;75016;52.400;16.880;2024-02-28T12:29:48;101201.79;;;8.45;100.00
24336;BME280;75016;52.400;16.880;2024-02-28T12:32:14;101204.56;;;8.39;100.00
24336;BME280;75016;52.400;16.880;2024-02-28T12:34:43;101204.77;;;8.45;100.00
24336;BME280;75016;52.400;16.880;2024-02-28T12:37:09;101205.65;;;8.45;100.00
24336;BME280;75016;52.400;16.880;2024-02-28T12:39:36;101208.56;;;8.31;100.00
24336;BME280;75016;52.400;16.880;2024-02-28T12:42:03;101201.30;;;8.28;100.00
24336;BME280;75016;52.400;16.880;2024-02-28T12:44:30;101209.35;;;8.26;100.00